• NOTAM LFLW

    Service NotamWeb du SIA indisponible - NOTAMS inconnus











  • PHOTOS SATELLITE

CARTE TEMSI

CARTE WINTEM

  • Vent au sol

  • Vent à 5000ft

  • ANIMATION RADAR

  • METAR/TAF LFLW (AURILLAC)

    LFLW 051130Z AUTO VRB03KT CAVOK 09/03 Q1036 NOSIG

    TAF LFLW 050800Z 0509/0518 VRB03KT CAVOK BECMG 0512/0515 36010KT

RESERVATION

  • COMM' FFA

    Brevet d’Initiation Aéronautique (BIA) c’est le moment de vous inscrire !

    Les inscriptions à l'examen sont ouvertes. Vous avez jusqu’au 8 mars 2023 pour vous inscrire à l’examen via l'application Cyclades.

    Les épreuves du BIA se dérouleront le mercredi 31 mai 2023 à 14 heures (mercredi 8 novembre 2023 pour la Polynésie française et la Nouvelle-Calédonie).